createdAt,value
2023-01-22T00:01:19.101Z,99065.19
2023-01-22T00:03:49.426Z,99076.41
2023-01-22T00:06:19.375Z,99074.50
2023-01-22T00:08:48.579Z,99071.59
2023-01-22T00:11:18.193Z,99086.28
2023-01-22T00:13:46.491Z,99083.84
2023-01-22T00:16:16.332Z,99083.59
2023-01-22T00:18:45.068Z,99075.59
2023-01-22T00:21:13.683Z,99082.28
2023-01-22T00:23:43.145Z,99099.88
2023-01-22T00:26:15.502Z,99100.41
2023-01-22T00:28:45.360Z,99109.47
2023-01-22T00:31:15.315Z,99112.44
2023-01-22T00:33:43.922Z,99101.78
2023-01-22T00:36:14.396Z,99094.53
2023-01-22T00:38:43.843Z,99109.78
2023-01-22T00:41:12.208Z,99125.50
2023-01-22T00:43:40.849Z,99115.91
2023-01-22T00:46:10.718Z,99111.09
2023-01-22T00:48:39.408Z,99103.63
2023-01-22T00:51:08.871Z,99101.22
2023-01-22T00:53:37.413Z,99099.34
2023-01-22T00:56:08.333Z,99102.81
2023-01-22T00:58:36.395Z,99104.69
2023-01-22T01:01:05.013Z,99098.53
2023-01-22T01:03:33.545Z,99106.53
2023-01-22T01:06:04.174Z,99096.66
2023-01-22T01:08:36.609Z,99097.16
2023-01-22T01:11:08.223Z,99112.38
2023-01-22T01:13:38.707Z,99118.25
2023-01-22T01:16:09.223Z,99112.63
2023-01-22T01:18:37.811Z,99106.75
2023-01-22T01:21:07.585Z,99097.13
2023-01-22T01:23:36.715Z,99104.06
2023-01-22T01:26:08.948Z,99105.41
2023-01-22T01:28:37.607Z,99093.91
2023-01-22T01:31:07.453Z,99086.19
2023-01-22T01:33:35.868Z,99073.38
2023-01-22T01:36:05.878Z,99067.81
2023-01-22T01:38:34.509Z,99083.28
2023-01-22T01:41:02.558Z,99108.63
2023-01-22T01:43:32.754Z,99104.06
2023-01-22T01:46:02.373Z,99113.91
2023-01-22T01:48:33.337Z,99129.41
2023-01-22T01:51:08.087Z,99128.84
2023-01-22T01:53:37.627Z,99131.50
2023-01-22T01:56:13.539Z,99144.34
2023-01-22T01:58:45.941Z,99143.53
2023-01-22T02:01:17.169Z,99144.03
2023-01-22T02:03:45.951Z,99126.69
2023-01-22T02:06:15.791Z,99116.31
2023-01-22T02:08:47.323Z,99121.44
2023-01-22T02:11:16.354Z,99128.13
2023-01-22T02:13:51.500Z,99135.84
2023-01-22T02:16:20.013Z,99141.44
2023-01-22T02:18:48.220Z,99131.25
2023-01-22T02:21:31.633Z,99145.69
2023-01-22T02:23:59.976Z,99132.53
2023-01-22T02:26:28.288Z,99124.00
2023-01-22T02:28:56.499Z,99112.25
2023-01-22T02:31:24.674Z,99119.78
2023-01-22T02:33:53.119Z,99115.56
2023-01-22T02:36:21.730Z,99125.97
2023-01-22T02:38:51.198Z,99146.84
2023-01-22T02:41:19.493Z,99142.28
2023-01-22T02:43:47.524Z,99131.28
2023-01-22T02:46:15.844Z,99136.09
2023-01-22T02:48:43.957Z,99149.69
2023-01-22T02:51:12.075Z,99141.91
2023-01-22T02:53:40.178Z,99144.81
2023-01-22T02:56:11.825Z,99126.59
2023-01-22T02:58:40.065Z,99123.13
2023-01-22T03:01:19.167Z,99127.66
2023-01-22T03:03:47.972Z,99115.63
2023-01-22T03:06:21.720Z,99124.47
2023-01-22T03:08:49.876Z,99132.75
2023-01-22T03:11:19.685Z,99122.28
2023-01-22T03:14:05.569Z,99111.56
2023-01-22T03:16:51.511Z,99119.34
2023-01-22T03:19:37.494Z,99134.88
2023-01-22T03:22:05.983Z,99125.78
2023-01-22T03:24:34.148Z,99138.34
2023-01-22T03:27:04.482Z,99149.34
2023-01-22T03:29:32.600Z,99155.25
2023-01-22T03:32:00.814Z,99158.19
2023-01-22T03:34:29.620Z,99161.66
2023-01-22T03:36:57.921Z,99152.03
2023-01-22T03:39:27.624Z,99148.28
2023-01-22T03:41:55.922Z,99153.06
2023-01-22T03:44:25.423Z,99165.66
2023-01-22T03:46:54.179Z,99163.50
2023-01-22T03:49:22.588Z,99165.34
2023-01-22T03:51:50.768Z,99183.50
2023-01-22T03:54:18.973Z,99185.63
2023-01-22T03:56:47.109Z,99197.66
2023-01-22T03:59:15.370Z,99200.63
2023-01-22T04:01:44.833Z,99202.25
2023-01-22T04:04:13.668Z,99228.50
2023-01-22T04:06:41.818Z,99223.94
2023-01-22T04:09:09.998Z,99235.47
2023-01-22T04:11:38.115Z,99231.22
2023-01-22T04:14:06.145Z,99234.97
2023-01-22T04:16:34.277Z,99245.44
2023-01-22T04:19:03.985Z,99238.75
2023-01-22T04:21:32.088Z,99241.66
2023-01-22T04:24:00.154Z,99238.44
2023-01-22T04:26:28.179Z,99236.03
2023-01-22T04:28:56.284Z,99233.34
2023-01-22T04:31:24.527Z,99231.72
2023-01-22T04:33:52.818Z,99236.28
2023-01-22T04:36:22.329Z,99248.03
2023-01-22T04:38:50.461Z,99265.97
2023-01-22T04:41:18.616Z,99268.66
2023-01-22T04:43:46.703Z,99274.56
2023-01-22T04:46:14.782Z,99278.81
2023-01-22T04:48:42.809Z,99278.81
2023-01-22T04:51:11.114Z,99269.69
2023-01-22T04:53:40.675Z,99274.72
2023-01-22T04:56:11.750Z,99275.25
2023-01-22T04:58:39.858Z,99259.97
2023-01-22T05:01:08.052Z,99265.31
2023-01-22T05:03:36.207Z,99264.19
2023-01-22T05:06:04.844Z,99258.81
2023-01-22T05:08:32.934Z,99253.72
2023-01-22T05:11:03.771Z,99249.19
2023-01-22T05:13:31.879Z,99243.38
2023-01-22T05:16:00.097Z,99240.22
2023-01-22T05:18:28.290Z,99235.44
2023-01-22T05:20:56.489Z,99222.06
2023-01-22T05:23:24.794Z,99213.25
2023-01-22T05:25:52.884Z,99213.56
2023-01-22T05:28:22.406Z,99208.47
2023-01-22T05:30:50.987Z,99211.41
2023-01-22T05:33:19.161Z,99245.94
2023-01-22T05:35:47.250Z,99269.75
2023-01-22T05:38:15.449Z,99269.22
2023-01-22T05:40:43.617Z,99266.03
2023-01-22T05:43:11.668Z,99257.47
2023-01-22T05:45:41.198Z,99273.53
2023-01-22T05:48:09.235Z,99276.19
2023-01-22T05:50:37.574Z,99273.78
2023-01-22T05:53:05.653Z,99270.31
2023-01-22T05:55:33.872Z,99269.22
2023-01-22T05:58:02.667Z,99278.03
2023-01-22T06:00:31.554Z,99287.69
2023-01-22T06:03:02.104Z,99305.34
2023-01-22T06:05:30.270Z,99298.91
2023-01-22T06:07:58.368Z,99303.19
2023-01-22T06:10:26.434Z,99316.28
2023-01-22T06:12:54.459Z,99327.53
2023-01-22T06:15:22.456Z,99319.25
2023-01-22T06:17:50.524Z,99306.66
2023-01-22T06:20:20.416Z,99308.81
2023-01-22T06:22:52.014Z,99316.84
2023-01-22T06:25:20.132Z,99327.00
2023-01-22T06:27:48.222Z,99344.13
2023-01-22T06:30:16.843Z,99353.78
2023-01-22T06:32:45.083Z,99349.78
2023-01-22T06:35:13.171Z,99356.47
2023-01-22T06:37:42.706Z,99365.53
2023-01-22T06:40:12.607Z,99364.19
2023-01-22T06:42:40.980Z,99368.22
2023-01-22T06:45:10.297Z,99364.50
2023-01-22T06:47:38.371Z,99369.28
2023-01-22T06:50:07.057Z,99383.47
2023-01-22T06:52:35.161Z,99389.34
2023-01-22T06:55:05.028Z,99399.53
2023-01-22T06:57:33.247Z,99409.97
2023-01-22T07:00:01.320Z,99418.28
2023-01-22T07:02:29.398Z,99424.41
2023-01-22T07:04:57.514Z,99430.81
2023-01-22T07:07:25.659Z,99434.56
2023-01-22T07:09:53.756Z,99438.59
2023-01-22T07:12:23.241Z,99440.47
2023-01-22T07:14:51.256Z,99427.03
2023-01-22T07:17:19.478Z,99432.09
2023-01-22T07:19:47.553Z,99443.06
2023-01-22T07:22:15.751Z,99439.53
2023-01-22T07:24:43.819Z,99438.97
2023-01-22T07:27:11.915Z,99448.06
2023-01-22T07:29:41.379Z,99442.41
2023-01-22T07:32:09.515Z,99440.78
2023-01-22T07:34:38.523Z,99437.53
2023-01-22T07:37:06.614Z,99436.41
2023-01-22T07:39:34.723Z,99443.53
2023-01-22T07:42:02.906Z,99452.78
2023-01-22T07:44:31.048Z,99456.75
2023-01-22T07:47:00.533Z,99452.91
2023-01-22T07:49:28.638Z,99462.19
2023-01-22T07:51:56.863Z,99463.72
2023-01-22T07:54:24.972Z,99462.03
2023-01-22T07:56:53.276Z,99464.91
2023-01-22T07:59:21.573Z,99467.78
2023-01-22T08:01:49.663Z,99476.25
2023-01-22T08:04:19.201Z,99466.00
2023-01-22T08:06:47.329Z,99472.69
2023-01-22T08:09:16.667Z,99472.47
2023-01-22T08:11:44.882Z,99475.69
2023-01-22T08:14:13.283Z,99484.22
2023-01-22T08:16:41.429Z,99491.38
2023-01-22T08:19:10.441Z,99491.59
2023-01-22T08:21:39.848Z,99490.50
2023-01-22T08:24:10.422Z,99490.50
2023-01-22T08:26:39.271Z,99502.25
2023-01-22T08:29:07.761Z,99498.72
2023-01-22T08:31:36.090Z,99507.28
2023-01-22T08:34:04.491Z,99505.13
2023-01-22T08:36:32.744Z,99501.34
2023-01-22T08:39:02.345Z,99489.34
2023-01-22T08:41:30.369Z,99484.53
2023-01-22T08:43:58.480Z,99507.41
2023-01-22T08:46:26.648Z,99516.50
2023-01-22T08:48:54.724Z,99526.63
2023-01-22T08:51:24.917Z,99527.34
2023-01-22T08:53:53.132Z,99522.91
2023-01-22T08:56:22.601Z,99511.00
2023-01-22T08:58:51.369Z,99508.91
2023-01-22T09:01:20.889Z,99511.88
2023-01-22T09:03:49.867Z,99509.41
2023-01-22T09:06:18.307Z,99512.88
2023-01-22T09:08:46.492Z,99524.06
2023-01-22T09:11:14.648Z,99523.22
2023-01-22T09:13:44.116Z,99521.78
2023-01-22T09:16:12.598Z,99525.50
2023-01-22T09:18:43.680Z,99523.31
2023-01-22T09:21:11.815Z,99534.53
2023-01-22T09:23:40.103Z,99536.06
2023-01-22T09:26:08.276Z,99540.56
2023-01-22T09:28:36.344Z,99540.50
2023-01-22T09:31:06.344Z,99540.22
2023-01-22T09:33:34.492Z,99542.63
2023-01-22T09:36:10.093Z,99549.03
2023-01-22T09:38:38.575Z,99550.06
2023-01-22T09:41:15.083Z,99549.78
2023-01-22T09:43:50.694Z,99543.88
2023-01-22T09:46:25.901Z,99545.78
2023-01-22T09:48:58.552Z,99546.25
2023-01-22T09:51:26.849Z,99551.38
2023-01-22T09:53:58.242Z,99552.75
2023-01-22T09:56:35.113Z,99553.38
2023-01-22T09:59:06.014Z,99543.78
2023-01-22T10:01:36.497Z,99541.16
2023-01-22T10:04:22.945Z,99541.41
2023-01-22T10:06:52.551Z,99530.69
2023-01-22T10:09:22.188Z,99520.34
2023-01-22T10:11:55.208Z,99513.50
2023-01-22T10:14:27.143Z,99524.53
2023-01-22T10:17:00.536Z,99524.38
2023-01-22T10:19:36.316Z,99529.97
2023-01-22T10:22:11.759Z,99532.41
2023-01-22T10:24:42.370Z,99531.81
2023-01-22T10:27:14.081Z,99536.16
2023-01-22T10:29:42.461Z,99537.53
2023-01-22T10:32:23.907Z,99543.66
2023-01-22T10:35:03.781Z,99535.03
2023-01-22T10:37:32.622Z,99546.22
2023-01-22T10:40:01.380Z,99551.97
2023-01-22T10:42:31.264Z,99549.16
2023-01-22T10:45:12.481Z,99553.97
2023-01-22T10:47:42.135Z,99540.88
2023-01-22T10:50:15.239Z,99552.53
2023-01-22T10:52:46.399Z,99558.81
2023-01-22T10:55:23.695Z,99545.81
2023-01-22T10:57:57.008Z,99543.50
2023-01-22T11:00:39.727Z,99534.72
2023-01-22T11:03:23.129Z,99546.00
2023-01-22T11:05:56.245Z,99541.13
2023-01-22T11:08:30.565Z,99538.16
2023-01-22T11:11:03.295Z,99551.50
2023-01-22T11:13:40.055Z,99553.84
2023-01-22T11:16:16.375Z,99558.34
2023-01-22T11:18:53.394Z,99564.16
2023-01-22T11:21:26.977Z,99565.41
2023-01-22T11:24:01.401Z,99584.94
2023-01-22T11:26:40.548Z,99585.25
2023-01-22T11:29:18.583Z,99590.81
2023-01-22T11:32:01.905Z,99584.13
2023-01-22T11:34:53.181Z,99577.88
2023-01-22T11:37:31.595Z,99571.00
2023-01-22T11:40:19.861Z,99572.75
2023-01-22T11:43:03.693Z,99572.59
2023-01-22T11:45:54.635Z,99575.78
2023-01-22T11:48:41.034Z,99566.38
2023-01-22T11:51:21.798Z,99574.19
2023-01-22T11:54:07.483Z,99567.19
2023-01-22T11:56:47.057Z,99568.72
2023-01-22T11:59:26.233Z,99574.84
2023-01-22T12:02:05.800Z,99581.84
2023-01-22T12:04:49.594Z,99580.56
2023-01-22T12:07:45.195Z,99574.38
2023-01-22T12:10:51.687Z,99579.84
2023-01-22T12:13:34.269Z,99581.28
2023-01-22T12:16:12.287Z,99583.28
2023-01-22T12:19:11.657Z,99583.91
2023-01-22T12:21:53.596Z,99572.38
2023-01-22T12:24:27.393Z,99584.59
2023-01-22T12:27:02.529Z,99582.59
2023-01-22T12:29:34.744Z,99584.13
2023-01-22T12:32:12.072Z,99576.81
2023-01-22T12:34:48.136Z,99579.13
2023-01-22T12:37:19.859Z,99573.72
2023-01-22T12:40:02.916Z,99566.41
2023-01-22T12:42:39.052Z,99580.63
2023-01-22T12:45:18.885Z,99580.03
2023-01-22T12:47:55.452Z,99580.63
2023-01-22T12:50:25.675Z,99586.19
2023-01-22T12:53:01.235Z,99588.41
2023-01-22T12:55:37.973Z,99587.81
2023-01-22T12:58:06.574Z,99595.19
2023-01-22T13:00:36.924Z,99581.31
2023-01-22T13:03:30.849Z,99583.25
2023-01-22T13:06:00.427Z,99586.13
2023-01-22T13:08:37.665Z,99585.94
2023-01-22T13:11:09.655Z,99589.84
2023-01-22T13:13:45.042Z,99589.44
2023-01-22T13:16:22.933Z,99593.97
2023-01-22T13:18:53.000Z,99599.28
2023-01-22T13:21:28.525Z,99607.56
2023-01-22T13:24:00.993Z,99622.88
2023-01-22T13:26:32.840Z,99614.94
2023-01-22T13:29:02.626Z,99620.00
2023-01-22T13:31:31.328Z,99612.28
2023-01-22T13:34:05.159Z,99617.91
2023-01-22T13:36:33.223Z,99624.81
2023-01-22T13:39:01.474Z,99616.59
2023-01-22T13:41:36.717Z,99625.63
2023-01-22T13:44:06.397Z,99629.41
2023-01-22T13:46:38.481Z,99616.81
2023-01-22T13:49:13.472Z,99627.38
2023-01-22T13:51:42.060Z,99613.69
2023-01-22T13:54:20.417Z,99621.25
2023-01-22T13:56:50.484Z,99626.13
2023-01-22T13:59:23.866Z,99634.47
2023-01-22T14:01:52.381Z,99637.38
2023-01-22T14:04:37.155Z,99645.47
2023-01-22T14:07:06.050Z,99653.97
2023-01-22T14:09:35.966Z,99644.50
2023-01-22T14:12:17.191Z,99649.28
2023-01-22T14:14:45.756Z,99650.34
2023-01-22T14:17:30.046Z,99663.81
2023-01-22T14:19:58.894Z,99669.69
2023-01-22T14:22:27.401Z,99674.59
2023-01-22T14:24:55.463Z,99680.56
2023-01-22T14:27:28.624Z,99671.38
2023-01-22T14:29:56.880Z,99674.16
2023-01-22T14:32:24.958Z,99672.41
2023-01-22T14:34:53.249Z,99671.75
2023-01-22T14:37:21.720Z,99670.06
2023-01-22T14:39:50.001Z,99667.72
2023-01-22T14:42:18.084Z,99667.72
2023-01-22T14:44:48.627Z,99667.28
2023-01-22T14:47:17.647Z,99668.44
2023-01-22T14:49:45.687Z,99679.31
2023-01-22T14:52:13.892Z,99689.00
2023-01-22T14:54:42.106Z,99679.53
2023-01-22T14:57:10.189Z,99677.69
2023-01-22T14:59:38.337Z,99685.75
2023-01-22T15:02:07.829Z,99686.31
2023-01-22T15:04:36.020Z,99675.53
2023-01-22T15:07:04.103Z,99690.09
2023-01-22T15:09:32.224Z,99691.47
2023-01-22T15:12:00.364Z,99695.84
2023-01-22T15:14:28.594Z,99692.63
2023-01-22T15:16:56.663Z,99689.13
2023-01-22T15:19:26.264Z,99691.31
2023-01-22T15:21:54.382Z,99693.47
2023-01-22T15:24:22.635Z,99697.84
2023-01-22T15:26:51.355Z,99692.50
2023-01-22T15:29:19.503Z,99690.44
2023-01-22T15:31:47.611Z,99696.38
2023-01-22T15:34:15.833Z,99690.78
2023-01-22T15:36:45.538Z,99707.50
2023-01-22T15:39:13.780Z,99712.09
2023-01-22T15:41:42.153Z,99707.03
2023-01-22T15:44:13.193Z,99711.66
2023-01-22T15:46:42.704Z,99712.22
2023-01-22T15:49:12.499Z,99704.25
2023-01-22T15:51:41.593Z,99708.34
2023-01-22T15:54:15.964Z,99710.56
2023-01-22T15:56:44.730Z,99716.47
2023-01-22T15:59:14.044Z,99720.84
2023-01-22T16:01:42.450Z,99724.66
2023-01-22T16:04:12.189Z,99726.84
2023-01-22T16:06:40.427Z,99728.50
2023-01-22T16:09:10.142Z,99720.78
2023-01-22T16:11:38.440Z,99727.31
2023-01-22T16:14:06.621Z,99726.84
2023-01-22T16:16:36.789Z,99721.50
2023-01-22T16:19:07.551Z,99720.19
2023-01-22T16:21:36.514Z,99720.50
2023-01-22T16:24:04.839Z,99721.06
2023-01-22T16:26:36.033Z,99717.03
2023-01-22T16:29:06.105Z,99721.59
2023-01-22T16:31:35.675Z,99722.41
2023-01-22T16:34:09.595Z,99724.56
2023-01-22T16:36:38.077Z,99729.13
2023-01-22T16:39:07.142Z,99728.03
2023-01-22T16:41:37.956Z,99739.84
2023-01-22T16:44:09.372Z,99743.63
2023-01-22T16:46:41.092Z,99747.38
2023-01-22T16:49:16.691Z,99744.16
2023-01-22T16:51:46.722Z,99743.91
2023-01-22T16:54:20.651Z,99750.09
2023-01-22T16:56:50.888Z,99752.81
2023-01-22T16:59:19.183Z,99764.88
2023-01-22T17:01:47.756Z,99756.28
2023-01-22T17:04:16.239Z,99763.00
2023-01-22T17:06:46.001Z,99763.28
2023-01-22T17:09:16.866Z,99766.78
2023-01-22T17:11:47.083Z,99763.81
2023-01-22T17:14:20.033Z,99761.94
2023-01-22T17:16:49.082Z,99763.25
2023-01-22T17:19:18.742Z,99767.81
2023-01-22T17:21:47.355Z,99768.38
2023-01-22T17:24:15.790Z,99768.91
2023-01-22T17:26:43.936Z,99771.03
2023-01-22T17:29:16.588Z,99764.59
2023-01-22T17:31:47.881Z,99763.22
2023-01-22T17:34:21.638Z,99765.38
2023-01-22T17:36:52.408Z,99770.47
2023-01-22T17:39:21.841Z,99772.88
2023-01-22T17:41:50.981Z,99774.75
2023-01-22T17:44:22.826Z,99773.97
2023-01-22T17:47:05.902Z,99779.34
2023-01-22T17:49:46.816Z,99783.38
2023-01-22T17:55:48.703Z,99786.31
2023-01-22T17:58:31.245Z,99783.69
2023-01-22T18:01:10.783Z,99795.75
2023-01-22T18:03:47.962Z,99786.38
2023-01-22T18:06:16.915Z,99798.47
2023-01-22T18:08:50.763Z,99802.25
2023-01-22T18:11:30.694Z,99804.13
2023-01-22T18:14:14.580Z,99803.03
2023-01-22T18:16:47.493Z,99808.13
2023-01-22T18:19:19.244Z,99802.50
2023-01-22T18:21:48.935Z,99809.22
2023-01-22T18:24:28.334Z,99813.47
2023-01-22T18:26:58.825Z,99799.53
2023-01-22T18:29:27.151Z,99800.59
2023-01-22T18:31:55.420Z,99807.28
2023-01-22T18:34:25.231Z,99810.75
2023-01-22T18:36:53.431Z,99809.94
2023-01-22T18:39:22.404Z,99816.09
2023-01-22T18:41:50.538Z,99810.75
2023-01-22T18:44:19.957Z,99810.19
2023-01-22T18:46:51.791Z,99811.28
2023-01-22T18:49:36.081Z,99806.66
2023-01-22T18:52:11.597Z,99814.44
2023-01-22T18:54:39.678Z,99812.56
2023-01-22T18:57:07.804Z,99817.34
2023-01-22T18:59:35.963Z,99824.56
2023-01-22T19:02:04.100Z,99828.81
2023-01-22T19:04:33.821Z,99824.22
2023-01-22T19:07:01.981Z,99825.53
2023-01-22T19:09:31.707Z,99830.84
2023-01-22T19:11:59.892Z,99830.03
2023-01-22T19:14:27.977Z,99822.75
2023-01-22T19:16:56.185Z,99827.03
2023-01-22T19:19:24.423Z,99824.06
2023-01-22T19:21:55.803Z,99821.66
2023-01-22T19:24:26.887Z,99820.03
2023-01-22T19:26:55.516Z,99839.59
2023-01-22T19:29:25.420Z,99836.91
2023-01-22T19:31:56.974Z,99850.00
2023-01-22T19:34:25.999Z,99851.00
2023-01-22T19:36:57.387Z,99842.16
2023-01-22T19:39:26.555Z,99842.41
2023-01-22T19:41:55.328Z,99844.25
2023-01-22T19:44:24.055Z,99845.28
2023-01-22T19:46:52.313Z,99846.66
2023-01-22T19:49:20.924Z,99845.59
2023-01-22T19:51:49.054Z,99854.44
2023-01-22T19:54:19.558Z,99846.66
2023-01-22T19:56:47.594Z,99843.69
2023-01-22T19:59:18.192Z,99843.91
2023-01-22T20:01:47.489Z,99846.03
2023-01-22T20:04:20.623Z,99847.66
2023-01-22T20:06:51.007Z,99851.44
2023-01-22T20:09:21.954Z,99846.59
2023-01-22T20:11:53.570Z,99849.78
2023-01-22T20:14:23.706Z,99859.38
2023-01-22T20:16:52.406Z,99854.81
2023-01-22T20:19:20.487Z,99850.84
2023-01-22T20:21:49.336Z,99858.34
2023-01-22T20:24:17.867Z,99856.22
2023-01-22T20:26:47.536Z,99860.25
2023-01-22T20:29:16.086Z,99859.19
2023-01-22T20:31:44.466Z,99853.56
2023-01-22T20:34:12.665Z,99855.13
2023-01-22T20:36:40.839Z,99859.38
2023-01-22T20:39:08.901Z,99854.28
2023-01-22T20:41:36.985Z,99852.13
2023-01-22T20:44:06.737Z,99860.97
2023-01-22T20:46:37.591Z,99858.28
2023-01-22T20:49:05.738Z,99864.44
2023-01-22T20:51:33.983Z,99863.41
2023-01-22T20:54:02.138Z,99866.13
2023-01-22T20:56:32.875Z,99865.09
2023-01-22T20:59:02.832Z,99863.28
2023-01-22T21:01:32.816Z,99865.44
2023-01-22T21:04:02.197Z,99869.47
2023-01-22T21:06:32.279Z,99861.94
2023-01-22T21:09:01.259Z,99860.59
2023-01-22T21:11:31.230Z,99854.69
2023-01-22T21:14:01.263Z,99861.41
2023-01-22T21:16:32.745Z,99861.41
2023-01-22T21:19:02.826Z,99863.03
2023-01-22T21:21:32.332Z,99866.22
2023-01-22T21:24:00.687Z,99876.69
2023-01-22T21:26:30.729Z,99880.16
2023-01-22T21:29:01.396Z,99876.41
2023-01-22T21:31:31.393Z,99875.63
2023-01-22T21:34:03.701Z,99873.25
2023-01-22T21:36:34.660Z,99871.06
2023-01-22T21:39:02.879Z,99879.38
2023-01-22T21:41:31.412Z,99873.47
2023-01-22T21:44:16.952Z,99872.88
2023-01-22T21:46:47.415Z,99865.91
2023-01-22T21:49:17.674Z,99874.50
2023-01-22T21:51:47.833Z,99882.28
2023-01-22T21:54:17.859Z,99881.53
2023-01-22T21:56:46.081Z,99884.81
2023-01-22T21:59:14.970Z,99866.06
2023-01-22T22:01:45.101Z,99862.63
2023-01-22T22:04:16.209Z,99877.09
2023-01-22T22:06:44.384Z,99867.75
2023-01-22T22:09:14.699Z,99884.66
2023-01-22T22:11:43.151Z,99869.97
2023-01-22T22:14:12.646Z,99875.94
2023-01-22T22:16:40.957Z,99869.25
2023-01-22T22:19:09.118Z,99886.19
2023-01-22T22:21:38.627Z,99873.91
2023-01-22T22:24:07.981Z,99866.97
2023-01-22T22:26:36.796Z,99863.47
2023-01-22T22:29:05.732Z,99867.25
2023-01-22T22:31:33.846Z,99872.34
2023-01-22T22:34:02.130Z,99858.44
2023-01-22T22:36:31.803Z,99856.88
2023-01-22T22:39:01.445Z,99861.44
2023-01-22T22:41:31.615Z,99871.38
2023-01-22T22:43:59.767Z,99860.63
2023-01-22T22:46:30.800Z,99852.03
2023-01-22T22:49:00.675Z,99854.72
2023-01-22T22:51:31.296Z,99863.31
2023-01-22T22:54:02.553Z,99863.59
2023-01-22T22:56:31.222Z,99865.50
2023-01-22T22:59:00.936Z,99858.25
2023-01-22T23:01:30.351Z,99859.34
2023-01-22T23:03:58.772Z,99854.50
2023-01-22T23:06:29.552Z,99865.50
2023-01-22T23:09:00.780Z,99873.31
2023-01-22T23:11:33.178Z,99856.69
2023-01-22T23:14:03.557Z,99863.41
2023-01-22T23:16:34.296Z,99871.44
2023-01-22T23:19:05.097Z,99870.66
2023-01-22T23:21:35.237Z,99864.75
2023-01-22T23:24:06.539Z,99870.34
2023-01-22T23:26:35.094Z,99867.97
2023-01-22T23:29:06.016Z,99877.34
2023-01-22T23:31:36.139Z,99881.66
2023-01-22T23:34:05.226Z,99886.25
2023-01-22T23:36:35.095Z,99883.81
2023-01-22T23:39:05.149Z,99888.94
2023-01-22T23:41:33.851Z,99886.50
2023-01-22T23:44:01.978Z,99883.28
2023-01-22T23:46:30.988Z,99892.69
2023-01-22T23:49:00.493Z,99892.94
2023-01-22T23:51:29.133Z,99901.53
2023-01-22T23:53:57.216Z,99893.75
2023-01-22T23:56:31.594Z,99899.41
2023-01-22T23:59:00.933Z,99888.91
